createdAt,value
2023-02-05T00:02:05.152Z,101218.53
2023-02-05T00:07:09.849Z,101222.63
2023-02-05T00:12:14.812Z,101251.78
2023-02-05T00:17:19.940Z,101221.44
2023-02-05T00:22:24.120Z,101227.88
2023-02-05T00:27:29.775Z,101229.97
2023-02-05T00:32:36.161Z,101221.72
2023-02-05T00:37:40.820Z,101249.53
2023-02-05T00:42:45.713Z,101210.41
2023-02-05T00:47:51.508Z,101226.34
2023-02-05T00:52:56.272Z,101246.69
2023-02-05T00:58:02.447Z,101216.25
2023-02-05T01:03:08.597Z,101239.22
2023-02-05T01:08:15.577Z,101226.75
2023-02-05T01:13:21.035Z,101241.88
2023-02-05T01:18:29.607Z,101232.91
2023-02-05T01:23:34.642Z,101237.56
2023-02-05T01:28:39.461Z,101244.19
2023-02-05T01:33:44.231Z,101283.47
2023-02-05T01:38:48.825Z,101261.44
2023-02-05T01:44:15.432Z,101256.56
2023-02-05T01:49:28.278Z,101251.69
2023-02-05T01:54:37.471Z,101288.19
2023-02-05T01:59:47.044Z,101266.94
2023-02-05T02:05:03.517Z,101306.13
2023-02-05T02:10:10.540Z,101274.59
2023-02-05T02:15:20.851Z,101252.44
2023-02-05T02:20:35.029Z,101249.25
2023-02-05T02:25:45.744Z,101239.06
2023-02-05T02:31:13.523Z,101227.19
2023-02-05T02:36:38.517Z,101229.84
2023-02-05T02:41:46.340Z,101220.53
2023-02-05T02:46:59.611Z,101217.13
2023-02-05T02:52:10.160Z,101222.41
2023-02-05T02:57:19.370Z,101205.34
2023-02-05T03:02:28.696Z,101201.22
2023-02-05T03:07:50.766Z,101216.00
2023-02-05T03:12:57.903Z,101178.91
2023-02-05T03:18:03.853Z,101179.91
2023-02-05T03:23:08.821Z,101169.94
2023-02-05T03:28:15.550Z,101165.00
2023-02-05T03:34:04.431Z,101163.97
2023-02-05T03:39:49.189Z,101159.69
2023-02-05T03:45:30.785Z,101134.22
2023-02-05T03:50:43.466Z,101125.03
2023-02-05T03:55:57.441Z,101132.22
2023-02-05T04:01:02.842Z,101136.78
2023-02-05T04:06:09.062Z,101107.25
2023-02-05T04:11:15.374Z,101094.94
2023-02-05T04:16:22.762Z,101092.84
2023-02-05T04:21:28.321Z,101095.72
2023-02-05T04:26:33.378Z,101098.69
2023-02-05T04:31:42.318Z,101070.13
2023-02-05T04:36:49.255Z,101056.50
2023-02-05T04:41:54.572Z,101061.38
2023-02-05T04:46:59.598Z,101047.34
2023-02-05T04:52:04.684Z,101022.72
2023-02-05T04:57:10.846Z,101010.28
2023-02-05T05:02:16.381Z,101006.06
2023-02-05T05:07:21.988Z,100997.94
2023-02-05T05:12:27.634Z,101000.72
2023-02-05T05:17:33.348Z,101002.13
2023-02-05T05:22:38.936Z,101007.66
2023-02-05T05:27:45.203Z,100984.06
2023-02-05T05:32:50.928Z,100985.19
2023-02-05T05:37:59.571Z,100984.94
2023-02-05T05:43:24.923Z,100983.13
2023-02-05T05:48:30.816Z,100976.91
2023-02-05T05:53:36.548Z,100968.88
2023-02-05T05:58:42.462Z,100966.25
2023-02-05T06:03:48.071Z,100963.66
2023-02-05T06:08:53.743Z,100959.53
2023-02-05T06:13:59.366Z,100945.06
2023-02-05T06:19:04.639Z,100945.59
2023-02-05T06:24:09.838Z,100943.53
2023-02-05T06:29:15.423Z,100945.69
2023-02-05T06:34:20.852Z,100942.94
2023-02-05T06:39:26.324Z,100945.81
2023-02-05T06:44:32.165Z,100950.75
2023-02-05T06:49:38.923Z,100958.09
2023-02-05T06:54:46.153Z,100949.00
2023-02-05T06:59:51.045Z,100952.25
2023-02-05T07:04:56.529Z,100944.94
2023-02-05T07:10:02.859Z,100946.31
2023-02-05T07:15:10.909Z,100930.44
2023-02-05T07:20:18.272Z,100940.59
2023-02-05T07:25:24.339Z,100925.94
2023-02-05T07:30:30.043Z,100934.09
2023-02-05T07:35:38.816Z,100942.34
2023-02-05T07:40:45.153Z,100935.75
2023-02-05T07:45:57.740Z,100938.56
2023-02-05T07:51:03.871Z,100954.31
2023-02-05T07:56:09.657Z,100945.94
2023-02-05T08:01:15.146Z,100955.13
2023-02-05T08:06:20.269Z,100951.03
2023-02-05T08:11:26.121Z,100948.84
2023-02-05T08:16:31.539Z,100958.94
2023-02-05T08:21:36.971Z,100955.94
2023-02-05T08:26:42.635Z,100957.56
2023-02-05T08:31:47.983Z,100966.06
2023-02-05T08:36:53.659Z,100965.16
2023-02-05T08:41:58.902Z,100964.97
2023-02-05T08:47:04.408Z,100971.78
2023-02-05T08:52:10.086Z,100991.72
2023-02-05T08:57:18.127Z,100993.94
2023-02-05T09:02:26.128Z,100994.41
2023-02-05T09:07:33.720Z,101009.84
2023-02-05T09:12:39.006Z,101000.38
2023-02-05T09:17:44.549Z,101009.56
2023-02-05T09:22:50.042Z,101013.72
2023-02-05T09:27:55.496Z,101036.84
2023-02-05T09:33:00.751Z,101026.59
2023-02-05T09:38:07.110Z,101035.09
2023-02-05T09:43:36.295Z,101036.94
2023-02-05T09:49:22.440Z,101045.75
2023-02-05T09:54:35.941Z,101054.53
2023-02-05T09:59:47.196Z,101065.00
2023-02-05T10:04:56.575Z,101101.34
2023-02-05T10:10:17.483Z,101084.66
2023-02-05T10:15:47.805Z,101088.78
2023-02-05T10:21:29.959Z,101092.94
2023-02-05T10:26:53.024Z,101112.47
2023-02-05T10:32:21.787Z,101121.56
2023-02-05T10:37:57.764Z,101128.97
2023-02-05T10:43:05.010Z,101131.22
2023-02-05T10:48:34.388Z,101132.63
2023-02-05T10:53:40.662Z,101135.56
2023-02-05T10:58:58.811Z,101139.25
2023-02-05T11:04:09.924Z,101145.53
2023-02-05T11:09:26.725Z,101141.47
2023-02-05T11:14:36.292Z,101155.50
2023-02-05T11:19:41.665Z,101151.28
2023-02-05T11:24:46.460Z,101152.19
2023-02-05T11:29:50.533Z,101156.63
2023-02-05T11:35:09.495Z,101174.09
2023-02-05T11:40:28.138Z,101171.63
2023-02-05T11:45:35.641Z,101167.50
2023-02-05T11:50:47.629Z,101180.53
2023-02-05T11:56:02.410Z,101187.59
2023-02-05T12:01:27.317Z,101194.69
2023-02-05T12:07:09.411Z,101208.81
2023-02-05T12:12:48.036Z,101198.69
2023-02-05T12:17:59.856Z,101206.75
2023-02-05T12:23:07.628Z,101208.09
2023-02-05T12:28:38.032Z,101214.38
2023-02-05T12:34:18.393Z,101221.56
2023-02-05T12:39:45.772Z,101217.53
2023-02-05T12:45:27.186Z,101227.44
2023-02-05T12:51:06.249Z,101243.41
2023-02-05T12:56:32.530Z,101237.94
2023-02-05T13:01:50.421Z,101240.22
2023-02-05T13:07:13.217Z,101247.53
2023-02-05T13:12:25.050Z,101267.81
2023-02-05T13:17:41.653Z,101255.34
2023-02-05T13:23:15.367Z,101261.75
2023-02-05T13:28:45.232Z,101248.34
2023-02-05T13:33:52.696Z,101247.53
2023-02-05T13:39:17.589Z,101247.78
2023-02-05T13:44:48.879Z,101247.47
2023-02-05T13:50:27.965Z,101262.81
2023-02-05T13:56:19.036Z,101256.94
2023-02-05T14:01:27.833Z,101258.75
2023-02-05T14:06:39.652Z,101266.47
2023-02-05T14:12:03.549Z,101269.09
2023-02-05T14:17:34.089Z,101275.25
2023-02-05T14:22:45.125Z,101275.56
2023-02-05T14:27:53.578Z,101285.41
2023-02-05T14:33:05.021Z,101282.44
2023-02-05T14:38:34.564Z,101283.63
2023-02-05T14:43:42.383Z,101285.69
2023-02-05T14:48:50.671Z,101282.69
2023-02-05T14:54:12.867Z,101324.44
2023-02-05T14:59:30.850Z,101296.31
2023-02-05T15:04:51.973Z,101297.28
2023-02-05T15:10:02.957Z,101299.78
2023-02-05T15:15:33.982Z,101313.41
2023-02-05T15:20:42.982Z,101310.03
2023-02-05T15:25:59.962Z,101321.16
2023-02-05T15:31:13.964Z,101318.03
2023-02-05T15:36:31.261Z,101320.94
2023-02-05T15:41:37.673Z,101328.91
2023-02-05T15:46:43.086Z,101321.63
2023-02-05T15:51:49.639Z,101330.44
2023-02-05T15:56:56.054Z,101334.28
2023-02-05T16:02:36.494Z,101327.47
2023-02-05T16:07:46.319Z,101333.72
2023-02-05T16:13:19.608Z,101339.91
2023-02-05T16:18:29.061Z,101338.28
2023-02-05T16:23:42.120Z,101343.44
2023-02-05T16:28:55.972Z,101347.03
2023-02-05T16:34:15.114Z,101377.16
2023-02-05T16:39:26.021Z,101347.75
2023-02-05T16:44:43.084Z,101355.63
2023-02-05T16:49:50.328Z,101378.34
2023-02-05T16:54:55.493Z,101351.81
2023-02-05T17:00:20.328Z,101358.03
2023-02-05T17:05:32.966Z,101344.41
2023-02-05T17:10:55.587Z,101384.84
2023-02-05T17:16:22.028Z,101349.03
2023-02-05T17:21:38.381Z,101349.75
2023-02-05T17:26:44.613Z,101360.94
2023-02-05T17:31:49.429Z,101356.84
2023-02-05T17:36:54.142Z,101357.06
2023-02-05T17:42:11.338Z,101356.16
2023-02-05T17:47:16.478Z,101352.84
2023-02-05T17:52:21.431Z,101361.59
2023-02-05T17:57:26.224Z,101353.19
2023-02-05T18:02:30.921Z,101375.81
2023-02-05T18:07:44.341Z,101382.03
2023-02-05T18:12:49.259Z,101377.94
2023-02-05T18:17:54.461Z,101384.13
2023-02-05T18:22:59.083Z,101393.56
2023-02-05T18:28:03.909Z,101396.88
2023-02-05T18:33:08.632Z,101386.56
2023-02-05T18:38:13.253Z,101379.63
2023-02-05T18:43:18.190Z,101383.72
2023-02-05T18:48:24.204Z,101396.31
2023-02-05T18:53:30.372Z,101392.72
2023-02-05T18:58:36.034Z,101385.94
2023-02-05T19:03:44.602Z,101388.56
2023-02-05T19:08:50.195Z,101387.09
2023-02-05T19:14:04.206Z,101376.13
2023-02-05T19:19:09.819Z,101383.19
2023-02-05T19:24:15.179Z,101388.41
2023-02-05T19:29:22.074Z,101396.09
2023-02-05T19:34:29.100Z,101390.81
2023-02-05T19:39:33.900Z,101432.00
2023-02-05T19:44:38.662Z,101405.94
2023-02-05T19:49:43.324Z,101401.28
2023-02-05T19:54:48.201Z,101428.38
2023-02-05T19:59:52.981Z,101404.69
2023-02-05T20:04:57.760Z,101422.78
2023-02-05T20:10:02.498Z,101410.03
2023-02-05T20:15:07.810Z,101416.16
2023-02-05T20:20:24.979Z,101428.28
2023-02-05T20:25:37.526Z,101456.78
2023-02-05T20:31:01.796Z,101424.06
2023-02-05T20:36:14.604Z,101431.53
2023-02-05T20:41:20.636Z,101431.50
2023-02-05T20:46:26.700Z,101443.44
2023-02-05T20:51:32.564Z,101449.31
2023-02-05T20:56:38.296Z,101449.22
2023-02-05T21:01:43.593Z,101457.00
2023-02-05T21:06:49.589Z,101458.03
2023-02-05T21:11:56.672Z,101474.44
2023-02-05T21:17:02.053Z,101469.34
2023-02-05T21:22:06.940Z,101471.28
2023-02-05T21:27:12.292Z,101473.09
2023-02-05T21:32:18.640Z,101476.72
2023-02-05T21:37:23.904Z,101491.25
2023-02-05T21:42:28.765Z,101498.13
2023-02-05T21:47:33.990Z,101499.88
2023-02-05T21:52:39.047Z,101505.94
2023-02-05T21:57:44.938Z,101515.53
2023-02-05T22:02:50.055Z,101519.06
2023-02-05T22:07:55.188Z,101515.84
2023-02-05T22:13:00.600Z,101516.00
2023-02-05T22:18:06.025Z,101527.25
2023-02-05T22:23:11.101Z,101558.38
2023-02-05T22:28:17.347Z,101557.69
2023-02-05T22:33:22.622Z,101563.13
2023-02-05T22:38:28.961Z,101579.59
2023-02-05T22:43:35.109Z,101631.19
2023-02-05T22:48:42.441Z,101599.34
2023-02-05T22:53:50.159Z,101596.81
2023-02-05T22:58:56.010Z,101610.59
2023-02-05T23:04:03.115Z,101605.50
2023-02-05T23:09:10.089Z,101631.34
2023-02-05T23:14:17.104Z,101628.88
2023-02-05T23:19:23.774Z,101641.13
2023-02-05T23:24:30.706Z,101647.19
2023-02-05T23:29:35.930Z,101655.84
2023-02-05T23:34:41.123Z,101663.59
2023-02-05T23:39:46.317Z,101668.78
2023-02-05T23:44:51.560Z,101675.72
2023-02-05T23:49:56.642Z,101683.47
2023-02-05T23:55:01.934Z,101682.56
